Vonore, Tennessee
Current Conditions -  °F | °C
As of 3:53 AM on Thursday 23 Oct 2014 (Local Time) from KTYS Reporting Station
Clear Clear  
Wind Chill: 37°   Ceiling: Unl
Heat Index: 42°   Visibility: 10mi
Dew Point: 38°   Wind: 8mph
Humidity: 85%   Direction: 30°NNE
Pressure: 30.17"   Gusts: NA
Location:  35.59°N, 84.24°W
Report Text: KTYS 230753Z 03007KT 10SM CLR 06/03 A3017 RMK AO2 SLP216 T00560033
Loading
Personal Weather Stations






























Interactive Weather Map
Tropical Storm Tracking
New forecast layout! Learn more

10-Day Weather Forecast

Advertisements
Track Severe Weather on mobile